Time;durP1;ratioP1;P1;durP2;ratioP2;P2;SDS_P1;SDS_P2;PMS_P1;PMS_P2;Temp;Humidity;BMP_temperature;BMP_pressure;BME280_temperature;BME280_humidity;BME280_pressure;Samples;Min_cycle;Max_cycle;Signal;HPM_P1;HPM_P2
2023/07/13 00:00:48;;;;;;;2.67;2.20;;;27.80;50.80;;;;;;5002429;28;20474;-88
2023/07/13 00:03:19;;;;;;;4.03;2.87;;;27.80;50.80;;;;;;5018673;28;20184;-87
2023/07/13 00:05:45;;;;;;;6.23;2.80;;;27.70;50.70;;;;;;4986150;28;20452;-86
2023/07/13 00:08:13;;;;;;;2.80;2.60;;;27.70;50.80;;;;;;5035496;28;20470;-87
2023/07/13 00:11:06;;;;;;;3.27;2.70;;;27.70;50.70;;;;;;5056164;28;20422;-89
2023/07/13 00:13:34;;;;;;;2.87;2.63;;;27.70;50.80;;;;;;5039712;28;20180;-87
2023/07/13 00:16:00;;;;;;;2.70;2.50;;;27.70;50.60;;;;;;5039120;28;20433;-87
2023/07/13 00:18:29;;;;;;;2.87;2.67;;;27.60;50.60;;;;;;5039214;28;20430;-88
2023/07/13 00:21:04;;;;;;;2.87;2.67;;;27.60;50.70;;;;;;5056136;28;20439;-88
2023/07/13 00:23:33;;;;;;;3.63;2.43;;;27.60;50.80;;;;;;5039278;28;20445;-88
2023/07/13 00:26:03;;;;;;;2.60;2.40;;;27.60;50.70;;;;;;5055815;28;20427;-88
2023/07/13 00:28:29;;;;;;;3.87;2.60;;;27.60;50.70;;;;;;5022546;28;20482;-87
2023/07/13 00:30:58;;;;;;;3.40;2.90;;;27.50;50.70;;;;;;5038950;28;20430;-88
2023/07/13 00:33:24;;;;;;;2.77;2.57;;;27.50;50.80;;;;;;5052042;28;20434;-87
2023/07/13 00:35:50;;;;;;;3.67;2.63;;;27.50;50.60;;;;;;5063845;28;20457;-87
2023/07/13 00:38:16;;;;;;;4.73;2.87;;;27.50;50.80;;;;;;5038878;28;20552;-87
2023/07/13 00:40:42;;;;;;;3.10;2.60;;;27.50;50.70;;;;;;5055064;28;20443;-87
2023/07/13 00:43:18;;;;;;;2.97;2.77;;;27.50;50.80;;;;;;5038890;28;20510;-88
2023/07/13 00:45:46;;;;;;;3.07;2.80;;;27.40;50.70;;;;;;5022575;28;20742;-88
2023/07/13 00:48:23;;;;;;;5.80;2.93;;;27.40;50.90;;;;;;5038288;28;20458;-88
2023/07/13 00:50:55;;;;;;;4.10;3.13;;;27.40;50.80;;;;;;5038581;28;20509;-88
2023/07/13 00:53:21;;;;;;;4.23;2.63;;;27.40;50.80;;;;;;5021833;28;20897;-87
2023/07/13 00:55:49;;;;;;;3.67;3.30;;;27.40;50.80;;;;;;5038574;28;20456;-87
2023/07/13 00:58:16;;;;;;;3.47;2.60;;;27.30;50.90;;;;;;5022458;28;20438;-87
2023/07/13 01:00:44;;;;;;;5.23;2.73;;;27.30;50.90;;;;;;5022104;28;20521;-87
2023/07/13 01:03:10;;;;;;;3.50;2.70;;;27.30;50.90;;;;;;5054789;28;20442;-88
2023/07/13 01:05:39;;;;;;;2.90;2.60;;;27.30;50.90;;;;;;5053902;28;20496;-87
2023/07/13 01:08:05;;;;;;;3.00;2.70;;;27.30;51.60;;;;;;5054909;28;20462;-87
2023/07/13 01:10:38;;;;;;;3.00;2.70;;;27.30;51.00;;;;;;5054846;28;20499;-87
2023/07/13 01:13:09;;;;;;;3.40;2.60;;;27.30;51.10;;;;;;5037933;28;20453;-87
2023/07/13 01:15:45;;;;;;;3.83;2.90;;;27.20;51.00;;;;;;5037798;28;20484;-87
2023/07/13 01:18:18;;;;;;;3.10;2.80;;;27.20;50.90;;;;;;5038080;28;20799;-86
2023/07/13 01:20:57;;;;;;;2.50;2.30;;;27.20;51.00;;;;;;5054440;28;20430;-87
2023/07/13 01:23:24;;;;;;;3.60;2.63;;;27.20;51.00;;;;;;5054478;28;20463;-87
2023/07/13 01:25:51;;;;;;;3.23;2.73;;;27.20;51.00;;;;;;5038086;28;20521;-87
2023/07/13 01:28:19;;;;;;;2.97;2.67;;;27.10;51.00;;;;;;5021557;28;20471;-87
2023/07/13 01:30:46;;;;;;;3.53;2.50;;;27.10;51.00;;;;;;5021445;28;20451;-88
2023/07/13 01:33:18;;;;;;;3.47;3.17;;;27.10;51.00;;;;;;5037788;28;20431;-87
2023/07/13 01:35:45;;;;;;;2.90;2.70;;;27.10;51.10;;;;;;5054322;28;20415;-87
2023/07/13 01:38:18;;;;;;;3.43;2.70;;;27.10;51.00;;;;;;5004485;28;20830;-87
2023/07/13 01:40:44;;;;;;;3.60;2.70;;;27.00;50.90;;;;;;5037966;28;20911;-88
2023/07/13 01:43:13;;;;;;;3.70;2.53;;;27.00;51.00;;;;;;5005518;28;20467;-87
2023/07/13 01:45:39;;;;;;;3.40;2.80;;;27.00;51.10;;;;;;5054048;28;20902;-87
2023/07/13 01:48:06;;;;;;;5.53;2.80;;;27.00;51.10;;;;;;5021187;28;20553;-87
2023/07/13 01:50:33;;;;;;;3.23;2.77;;;27.00;51.70;;;;;;5054017;28;20842;-88
2023/07/13 01:53:01;;;;;;;2.83;2.47;;;27.00;51.10;;;;;;5053842;28;20887;-88
2023/07/13 01:55:29;;;;;;;5.20;2.90;;;27.00;51.20;;;;;;5020800;28;20422;-88
2023/07/13 01:57:56;;;;;;;3.00;2.70;;;26.90;51.00;;;;;;5037388;28;20438;-87
2023/07/13 02:00:22;;;;;;;3.90;2.53;;;26.90;51.00;;;;;;5020756;28;20880;-87
2023/07/13 02:02:50;;;;;;;2.90;2.50;;;26.90;51.10;;;;;;5036968;28;20438;-88
2023/07/13 02:05:19;;;;;;;3.30;2.60;;;26.90;51.10;;;;;;5037507;28;20434;-88
2023/07/13 02:07:47;;;;;;;3.83;3.00;;;26.90;51.10;;;;;;5054515;28;20469;-87
2023/07/13 02:10:14;;;;;;;3.23;2.93;;;26.90;51.10;;;;;;5021315;28;20430;-87
2023/07/13 02:12:46;;;;;;;3.03;2.83;;;26.80;51.10;;;;;;5053441;28;20500;-88
2023/07/13 02:15:12;;;;;;;3.43;3.10;;;26.80;51.20;;;;;;5037006;28;20422;-88
2023/07/13 02:17:38;;;;;;;4.87;2.80;;;26.80;51.70;;;;;;5021427;28;20423;-88
2023/07/13 02:20:05;;;;;;;4.67;3.00;;;26.80;51.10;;;;;;5050084;28;20528;-91
2023/07/13 02:22:34;;;;;;;4.23;3.20;;;26.80;51.30;;;;;;5034020;28;20896;-91
2023/07/13 02:25:00;;;;;;;3.97;3.07;;;26.70;51.20;;;;;;5034860;28;20510;-92
2023/07/13 02:27:26;;;;;;;4.40;2.47;;;26.70;51.20;;;;;;5034980;28;20475;-93
2023/07/13 02:29:55;;;;;;;2.60;2.30;;;26.70;51.20;;;;;;5050791;28;20466;-92
2023/07/13 02:32:22;;;;;;;5.20;2.70;;;26.70;51.30;;;;;;5034736;28;20221;-92
2023/07/13 02:34:47;;;;;;;3.20;2.57;;;26.70;51.30;;;;;;5034256;28;20455;-90
2023/07/13 02:37:18;;;;;;;4.40;2.60;;;26.70;51.30;;;;;;5034283;28;20431;-90
2023/07/13 02:39:47;;;;;;;3.00;2.70;;;26.60;51.30;;;;;;5034029;28;20459;-91
2023/07/13 02:42:13;;;;;;;5.93;3.10;;;26.60;51.30;;;;;;5017759;28;20431;-92
2023/07/13 02:44:39;;;;;;;5.20;2.80;;;26.60;51.40;;;;;;5036777;28;20449;-91
2023/07/13 02:47:08;;;;;;;3.57;2.93;;;26.60;51.40;;;;;;5037391;28;20445;-91
2023/07/13 02:49:34;;;;;;;5.60;2.70;;;26.60;51.50;;;;;;5037077;28;20454;-91
2023/07/13 02:52:00;;;;;;;4.10;2.70;;;26.60;51.50;;;;;;5053859;28;20425;-91
2023/07/13 02:54:25;;;;;;;2.60;2.43;;;26.60;51.50;;;;;;5037263;28;20537;-91
2023/07/13 02:56:56;;;;;;;2.83;2.60;;;26.60;51.60;;;;;;5037799;28;20263;-92
2023/07/13 02:59:22;;;;;;;4.10;3.03;;;26.50;51.50;;;;;;5037302;28;20469;-91
2023/07/13 03:01:48;;;;;;;3.03;2.80;;;26.60;51.70;;;;;;5053481;28;20237;-90
2023/07/13 03:04:14;;;;;;;5.73;3.07;;;26.50;51.60;;;;;;5053802;28;20420;-91
2023/07/13 03:06:40;;;;;;;2.90;2.70;;;26.50;51.60;;;;;;5053590;28;20445;-91
2023/07/13 03:09:12;;;;;;;4.40;3.00;;;26.50;51.70;;;;;;5053754;28;20490;-91
2023/07/13 03:11:42;;;;;;;4.83;3.00;;;26.50;51.80;;;;;;5037412;28;20513;-91
2023/07/13 03:14:23;;;;;;;4.27;3.20;;;26.40;51.70;;;;;;5053566;28;20442;-91
2023/07/13 03:16:51;;;;;;;4.57;3.10;;;26.40;51.70;;;;;;5020818;28;20473;-91
2023/07/13 03:19:19;;;;;;;3.13;2.80;;;26.40;51.70;;;;;;5053344;28;20437;-91
2023/07/13 03:21:49;;;;;;;2.70;2.50;;;26.40;51.80;;;;;;5037311;28;20450;-91
2023/07/13 03:24:15;;;;;;;3.30;2.73;;;26.40;51.80;;;;;;5037081;28;20495;-90
2023/07/13 03:26:43;;;;;;;4.30;2.53;;;26.30;51.80;;;;;;5038972;28;20195;-91
2023/07/13 03:29:12;;;;;;;3.13;2.83;;;26.30;51.90;;;;;;5039513;28;20450;-90
2023/07/13 03:31:39;;;;;;;3.17;2.83;;;26.30;51.90;;;;;;5039896;28;20418;-89
2023/07/13 03:34:05;;;;;;;2.63;2.43;;;26.30;51.90;;;;;;5065866;28;20417;-91
2023/07/13 03:36:36;;;;;;;3.77;2.37;;;26.30;52.00;;;;;;5059305;28;20397;-91
2023/07/13 03:39:08;;;;;;;2.63;2.10;;;26.30;52.00;;;;;;5058700;28;20429;-91
2023/07/13 03:41:49;;;;;;;2.90;2.40;;;26.30;52.00;;;;;;5065939;28;20899;-90
2023/07/13 03:44:17;;;;;;;2.70;2.23;;;26.20;52.00;;;;;;5039503;28;20415;-91
2023/07/13 03:46:46;;;;;;;3.17;2.97;;;26.20;52.00;;;;;;5055939;28;20859;-90
2023/07/13 03:49:13;;;;;;;3.00;2.67;;;26.20;52.10;;;;;;5055534;28;20603;-91
2023/07/13 03:51:39;;;;;;;3.47;2.67;;;26.20;52.10;;;;;;5053902;28;20431;-91
2023/07/13 03:54:06;;;;;;;2.90;2.60;;;26.20;52.20;;;;;;5019505;28;20446;-88
2023/07/13 03:56:32;;;;;;;3.27;2.63;;;26.20;52.20;;;;;;5002561;28;21047;-91
2023/07/13 03:59:02;;;;;;;2.63;2.43;;;26.10;52.20;;;;;;5035456;28;20404;-89
2023/07/13 04:01:31;;;;;;;3.40;2.93;;;26.10;52.20;;;;;;5038395;28;20434;-91
2023/07/13 04:04:00;;;;;;;3.03;2.70;;;26.10;52.30;;;;;;5069001;28;20445;-89
2023/07/13 04:06:29;;;;;;;3.50;2.80;;;26.10;52.30;;;;;;5039271;28;20427;-90
2023/07/13 04:08:59;;;;;;;3.57;3.03;;;26.10;52.30;;;;;;5038684;28;20470;-90
2023/07/13 04:11:29;;;;;;;2.93;2.73;;;26.10;52.40;;;;;;5038708;28;20757;-89
2023/07/13 04:13:55;;;;;;;2.67;2.40;;;26.00;52.30;;;;;;5055315;28;20430;-90
2023/07/13 04:16:25;;;;;;;3.63;3.33;;;26.00;52.40;;;;;;5054905;28;20889;-89
2023/07/13 04:18:54;;;;;;;3.00;2.70;;;26.00;52.40;;;;;;5055726;28;20450;-91
2023/07/13 04:21:25;;;;;;;7.47;2.97;;;26.00;52.50;;;;;;5055044;28;20505;-90
2023/07/13 04:23:51;;;;;;;3.10;2.73;;;26.00;52.50;;;;;;5055821;28;20484;-91
2023/07/13 04:26:22;;;;;;;3.57;2.80;;;26.00;52.50;;;;;;5038210;28;20437;-90
2023/07/13 04:28:52;;;;;;;3.03;2.80;;;25.90;52.50;;;;;;5040171;28;20458;-89
2023/07/13 04:31:18;;;;;;;3.30;3.00;;;26.00;52.60;;;;;;5039874;28;20949;-90
2023/07/13 04:33:44;;;;;;;4.00;2.97;;;25.90;52.60;;;;;;5037841;28;20442;-90
2023/07/13 04:36:10;;;;;;;3.60;3.00;;;25.90;53.20;;;;;;5054235;28;20496;-90
2023/07/13 04:38:36;;;;;;;3.20;2.40;;;25.90;52.70;;;;;;5038037;28;20442;-91
2023/07/13 04:41:05;;;;;;;3.13;2.83;;;25.90;52.70;;;;;;5037736;28;20473;-89
2023/07/13 04:43:32;;;;;;;3.87;3.20;;;25.80;52.70;;;;;;5038022;28;20442;-89
2023/07/13 04:46:04;;;;;;;3.00;2.80;;;25.80;52.70;;;;;;5054064;28;20423;-89
2023/07/13 04:48:29;;;;;;;2.83;2.50;;;25.80;52.70;;;;;;5037678;28;20541;-88
2023/07/13 04:50:57;;;;;;;3.73;3.00;;;25.80;52.80;;;;;;5055288;28;20426;-90
2023/07/13 04:53:24;;;;;;;4.13;3.20;;;25.80;52.80;;;;;;5037476;28;20176;-89
2023/07/13 04:55:51;;;;;;;3.90;3.60;;;25.80;52.90;;;;;;5054472;28;20752;-92
2023/07/13 04:58:17;;;;;;;3.47;3.07;;;25.80;52.90;;;;;;5021838;28;20446;-91
2023/07/13 05:00:45;;;;;;;3.73;3.00;;;25.80;53.00;;;;;;5055608;28;20449;-91
2023/07/13 05:03:15;;;;;;;3.30;3.00;;;25.80;53.00;;;;;;5054777;28;20453;-92
2023/07/13 05:05:41;;;;;;;5.10;2.80;;;25.80;53.10;;;;;;5021727;28;20414;-92
2023/07/13 05:08:07;;;;;;;5.60;3.13;;;25.80;53.10;;;;;;5054658;28;20473;-91
2023/07/13 05:10:37;;;;;;;3.13;2.83;;;25.70;53.00;;;;;;5054518;28;20927;-93
2023/07/13 05:13:03;;;;;;;2.97;2.77;;;25.70;53.10;;;;;;5054381;28;20180;-91
2023/07/13 05:15:29;;;;;;;3.30;2.87;;;25.70;53.20;;;;;;5054670;28;20416;-92
2023/07/13 05:17:54;;;;;;;5.50;3.03;;;25.70;53.20;;;;;;5038162;28;20561;-92
2023/07/13 05:20:23;;;;;;;4.17;2.97;;;25.70;53.20;;;;;;5038434;28;20426;-92
2023/07/13 05:22:50;;;;;;;2.90;2.67;;;25.60;53.20;;;;;;5060260;28;20483;-93
2023/07/13 05:25:16;;;;;;;5.90;3.60;;;25.70;53.30;;;;;;5066044;28;20249;-92
2023/07/13 05:27:42;;;;;;;3.00;2.70;;;25.60;53.30;;;;;;5054528;28;20410;-93
2023/07/13 05:30:11;;;;;;;3.57;3.27;;;25.60;53.30;;;;;;5054432;28;20417;-92
2023/07/13 05:32:38;;;;;;;3.40;3.00;;;25.60;53.40;;;;;;5021227;28;20487;-93
2023/07/13 05:35:04;;;;;;;3.37;3.07;;;25.60;53.40;;;;;;5038102;28;20891;-93
2023/07/13 05:37:30;;;;;;;3.70;2.57;;;25.60;53.40;;;;;;5054523;28;20410;-91
2023/07/13 05:39:56;;;;;;;2.87;2.67;;;25.60;53.60;;;;;;5053831;28;20457;-93
2023/07/13 05:42:24;;;;;;;6.07;3.00;;;25.60;53.60;;;;;;5070370;28;20418;-93
2023/07/13 05:44:55;;;;;;;3.30;3.00;;;25.60;53.70;;;;;;5054196;28;20742;-91
2023/07/13 05:47:21;;;;;;;3.63;2.77;;;25.50;53.60;;;;;;5038115;28;20207;-92
2023/07/13 05:49:47;;;;;;;3.03;2.73;;;25.50;53.70;;;;;;5053918;28;20737;-92
2023/07/13 05:52:15;;;;;;;4.77;3.30;;;25.50;53.70;;;;;;5069902;28;20185;-94
2023/07/13 05:54:41;;;;;;;3.33;2.70;;;25.50;53.80;;;;;;5054447;28;20450;-94
2023/07/13 05:57:07;;;;;;;4.27;3.00;;;25.50;54.00;;;;;;5037431;28;20176;-93
2023/07/13 05:59:33;;;;;;;3.40;3.10;;;25.40;53.90;;;;;;5062498;28;20437;-93
2023/07/13 06:01:59;;;;;;;3.67;3.20;;;25.40;54.00;;;;;;5042011;28;20208;-94
2023/07/13 06:04:30;;;;;;;3.13;2.83;;;25.40;54.10;;;;;;5034312;28;20408;-94
2023/07/13 06:06:56;;;;;;;5.00;3.07;;;25.40;54.10;;;;;;5034384;28;20564;-92
2023/07/13 06:09:24;;;;;;;5.47;3.03;;;25.40;54.20;;;;;;5016842;28;20562;-93
2023/07/13 06:11:52;;;;;;;5.43;3.13;;;25.30;54.20;;;;;;5001076;28;20187;-94
2023/07/13 06:14:18;;;;;;;5.13;3.33;;;25.30;54.20;;;;;;5033596;28;20408;-94
2023/07/13 06:16:44;;;;;;;6.03;3.27;;;25.30;54.30;;;;;;5001370;28;20926;-92
2023/07/13 06:19:12;;;;;;;4.23;3.30;;;25.30;54.40;;;;;;5034482;28;20437;-95
2023/07/13 06:21:38;;;;;;;3.30;2.90;;;25.30;54.50;;;;;;5017365;28;20538;-92
2023/07/13 06:24:04;;;;;;;5.00;3.30;;;25.30;54.60;;;;;;5036059;28;20428;-95
2023/07/13 06:26:30;;;;;;;4.77;3.30;;;25.30;54.60;;;;;;5037659;28;20184;-92
2023/07/13 06:28:56;;;;;;;4.00;3.30;;;25.30;54.70;;;;;;5053648;28;20557;-92
2023/07/13 06:31:24;;;;;;;3.30;2.80;;;25.30;54.70;;;;;;5055389;28;20194;-94
2023/07/13 06:33:50;;;;;;;4.83;3.90;;;25.20;54.80;;;;;;5022017;28;20448;-93
2023/07/13 06:36:18;;;;;;;3.30;3.00;;;25.20;54.80;;;;;;5033400;28;20461;-90
2023/07/13 06:38:44;;;;;;;3.17;2.87;;;25.20;54.80;;;;;;5036225;28;20445;-90
2023/07/13 06:41:09;;;;;;;5.67;3.40;;;25.20;54.90;;;;;;5025238;28;20929;-89
2023/07/13 06:43:38;;;;;;;5.83;3.37;;;25.20;54.90;;;;;;5019984;28;20564;-89
2023/07/13 06:46:06;;;;;;;4.80;3.30;;;25.20;55.00;;;;;;5036308;28;20207;-89
2023/07/13 06:48:32;;;;;;;3.93;3.27;;;25.20;55.10;;;;;;5036538;28;20466;-89
2023/07/13 06:51:02;;;;;;;4.20;3.37;;;25.20;55.10;;;;;;5052987;28;20473;-90
2023/07/13 06:53:28;;;;;;;3.73;3.33;;;25.10;55.20;;;;;;5053501;28;20391;-90
2023/07/13 06:55:54;;;;;;;5.23;3.93;;;25.20;55.30;;;;;;5036638;28;20429;-90
2023/07/13 06:58:22;;;;;;;5.87;3.93;;;25.10;55.30;;;;;;5036891;28;20267;-89
2023/07/13 07:00:51;;;;;;;6.00;3.50;;;25.20;55.40;;;;;;5036853;28;20434;-89
2023/07/13 07:03:17;;;;;;;4.60;3.20;;;25.10;55.40;;;;;;5037947;28;20422;-90
2023/07/13 07:05:43;;;;;;;4.37;3.60;;;25.10;55.40;;;;;;5040740;28;20520;-90
2023/07/13 07:08:12;;;;;;;5.40;3.73;;;25.10;55.50;;;;;;5040335;28;20468;-90
2023/07/13 07:10:41;;;;;;;4.03;3.63;;;25.10;55.60;;;;;;5040308;28;20415;-91
2023/07/13 07:13:07;;;;;;;3.93;3.60;;;25.10;55.70;;;;;;5040026;28;20464;-92
2023/07/13 07:15:35;;;;;;;6.20;3.77;;;25.10;55.70;;;;;;5023382;28;20422;-90
2023/07/13 07:18:01;;;;;;;3.63;3.20;;;25.00;55.70;;;;;;5023305;28;20541;-89
2023/07/13 07:20:27;;;;;;;5.03;3.90;;;25.10;55.70;;;;;;5037892;28;20500;-92
2023/07/13 07:22:53;;;;;;;4.60;3.80;;;25.10;55.80;;;;;;5036706;28;20215;-91
2023/07/13 07:25:19;;;;;;;4.10;3.70;;;25.00;55.80;;;;;;5036088;28;20429;-91
2023/07/13 07:27:46;;;;;;;4.50;3.80;;;25.00;55.90;;;;;;5020156;28;20207;-92
2023/07/13 07:30:14;;;;;;;4.20;3.30;;;25.00;55.80;;;;;;5036266;28;20474;-92
2023/07/13 07:32:43;;;;;;;4.27;3.23;;;25.00;55.90;;;;;;5052615;28;20716;-91
2023/07/13 07:35:11;;;;;;;6.63;4.97;;;25.00;56.00;;;;;;5057109;28;20759;-91
2023/07/13 07:37:37;;;;;;;5.50;3.90;;;25.00;56.00;;;;;;5023331;28;20438;-89
2023/07/13 07:40:03;;;;;;;4.73;4.10;;;25.00;56.00;;;;;;5056088;28;20434;-92
2023/07/13 07:42:29;;;;;;;4.00;3.40;;;25.00;56.00;;;;;;5052326;28;20450;-92
2023/07/13 07:44:55;;;;;;;5.93;3.33;;;25.00;56.00;;;;;;5019836;28;20954;-92
2023/07/13 07:47:23;;;;;;;3.63;3.33;;;25.00;56.10;;;;;;5035818;28;20224;-93
2023/07/13 07:49:50;;;;;;;4.90;3.50;;;25.00;56.10;;;;;;5036962;28;20477;-91
2023/07/13 07:52:18;;;;;;;6.00;3.70;;;25.00;56.20;;;;;;5019659;28;20416;-90
2023/07/13 07:54:46;;;;;;;4.20;3.60;;;25.00;56.20;;;;;;5035987;28;20761;-91
2023/07/13 07:57:12;;;;;;;5.40;4.10;;;25.00;56.20;;;;;;5035561;28;20478;-92
2023/07/13 07:59:40;;;;;;;5.50;3.93;;;25.00;56.20;;;;;;5044781;28;20501;-91
2023/07/13 08:02:06;;;;;;;5.37;4.27;;;25.00;56.20;;;;;;5060165;28;20808;-90
2023/07/13 08:04:32;;;;;;;4.23;3.60;;;25.00;56.20;;;;;;5069868;28;20447;-92
2023/07/13 08:06:58;;;;;;;5.60;3.80;;;25.00;56.30;;;;;;5056349;28;20556;-92
2023/07/13 08:09:28;;;;;;;5.03;4.00;;;25.00;56.40;;;;;;5055816;28;20515;-93
2023/07/13 08:11:54;;;;;;;5.70;3.80;;;25.00;56.30;;;;;;5056630;28;20171;-92
2023/07/13 08:14:20;;;;;;;5.87;4.33;;;25.00;56.40;;;;;;5038655;28;20442;-93
2023/07/13 08:16:46;;;;;;;3.80;3.47;;;25.00;56.40;;;;;;5022433;28;20489;-92
2023/07/13 08:19:12;;;;;;;4.87;4.37;;;25.00;56.50;;;;;;5056336;28;20422;-93
2023/07/13 08:21:38;;;;;;;5.53;4.00;;;25.00;56.50;;;;;;5038979;28;20922;-90
2023/07/13 08:24:04;;;;;;;6.20;4.70;;;25.00;56.60;;;;;;5039254;28;20466;-93
2023/07/13 08:26:30;;;;;;;4.43;4.03;;;25.00;56.60;;;;;;5054920;28;20446;-91
2023/07/13 08:28:58;;;;;;;4.10;3.70;;;24.90;56.60;;;;;;5038317;28;20466;-90
2023/07/13 08:31:24;;;;;;;4.10;3.70;;;24.90;56.70;;;;;;5055758;28;20485;-91
2023/07/13 08:33:53;;;;;;;5.20;4.80;;;24.90;56.60;;;;;;5071757;28;20423;-91
2023/07/13 08:36:19;;;;;;;4.10;3.43;;;25.00;56.80;;;;;;5055276;28;20964;-91
2023/07/13 08:38:47;;;;;;;7.07;4.63;;;24.90;56.60;;;;;;5055197;28;20228;-93
2023/07/13 08:41:16;;;;;;;6.50;4.50;;;24.90;56.50;;;;;;5056291;28;20433;-94
2023/07/13 08:43:48;;;;;;;4.70;4.27;;;24.90;56.70;;;;;;5054899;28;20425;-91
2023/07/13 08:46:26;;;;;;;5.10;3.60;;;25.00;56.70;;;;;;5038546;28;20407;-93
2023/07/13 08:48:58;;;;;;;4.60;4.20;;;25.00;56.80;;;;;;5054935;28;20442;-92
2023/07/13 08:51:24;;;;;;;7.90;4.20;;;25.00;56.80;;;;;;5055110;28;20449;-94
2023/07/13 08:53:55;;;;;;;5.17;3.67;;;25.00;56.90;;;;;;5038571;28;20426;-91
2023/07/13 08:56:30;;;;;;;5.63;4.00;;;25.00;56.80;;;;;;5055254;28;20874;-92
2023/07/13 08:58:58;;;;;;;5.30;4.00;;;25.00;56.90;;;;;;5038367;28;20465;-92
2023/07/13 09:01:32;;;;;;;6.37;3.80;;;25.00;56.90;;;;;;5055328;28;20417;-93
2023/07/13 09:04:22;;;;;;;5.40;4.20;;;25.00;57.00;;;;;;5038670;28;20474;-91
2023/07/13 09:06:53;;;;;;;6.07;4.13;;;25.00;57.60;;;;;;5055419;28;20428;-91
2023/07/13 09:09:33;;;;;;;5.60;4.47;;;25.00;57.10;;;;;;5039713;28;20466;-93
2023/07/13 09:12:08;;;;;;;5.53;3.77;;;25.00;57.30;;;;;;5056820;28;20447;-91
2023/07/13 09:14:56;;;;;;;4.63;3.97;;;25.00;57.20;;;;;;5055971;28;20467;-92
2023/07/13 09:17:39;;;;;;;5.50;4.03;;;25.00;57.20;;;;;;5039420;28;20906;-94
2023/07/13 09:20:38;;;;;;;6.07;4.10;;;25.00;57.30;;;;;;5038814;28;20922;-92
2023/07/13 09:23:15;;;;;;;8.23;4.73;;;25.00;57.30;;;;;;5043724;28;20446;-93
2023/07/13 09:25:43;;;;;;;5.03;4.53;;;25.00;57.40;;;;;;5025816;28;20458;-92
2023/07/13 09:28:25;;;;;;;7.50;5.13;;;25.00;57.40;;;;;;5026469;28;20431;-93
2023/07/13 09:31:03;;;;;;;7.10;4.50;;;25.00;57.40;;;;;;5060091;28;20430;-92
2023/07/13 09:33:30;;;;;;;4.70;4.03;;;25.00;57.30;;;;;;5043536;28;20441;-91
2023/07/13 09:35:58;;;;;;;4.93;4.37;;;25.00;57.40;;;;;;5037368;28;20465;-88
2023/07/13 09:38:28;;;;;;;5.90;3.93;;;25.00;58.00;;;;;;5072083;28;20418;-92
2023/07/13 09:41:19;;;;;;;6.77;3.93;;;25.00;57.40;;;;;;5022481;28;20471;-92
2023/07/13 09:44:13;;;;;;;4.07;3.63;;;25.00;57.50;;;;;;5018706;28;20442;-92
2023/07/13 09:46:51;;;;;;;5.33;4.13;;;25.00;57.40;;;;;;5017537;28;20550;-90
2023/07/13 09:49:29;;;;;;;6.10;4.20;;;25.00;57.50;;;;;;5033711;28;20455;-92
2023/07/13 09:52:00;;;;;;;7.07;4.30;;;25.00;57.60;;;;;;5000671;28;20527;-91
2023/07/13 09:54:29;;;;;;;5.67;4.20;;;25.10;57.70;;;;;;5016203;28;20801;-92
2023/07/13 09:56:59;;;;;;;7.00;4.27;;;25.00;57.50;;;;;;5032639;28;20545;-90
2023/07/13 09:59:40;;;;;;;6.03;4.27;;;25.00;57.60;;;;;;5032444;28;20427;-91
2023/07/13 10:02:34;;;;;;;6.10;4.20;;;25.10;57.70;;;;;;5032422;28;20459;-91
2023/07/13 10:05:13;;;;;;;6.80;3.83;;;25.10;57.40;;;;;;5022603;28;20438;-92
2023/07/13 10:07:46;;;;;;;7.63;4.13;;;25.10;57.60;;;;;;5037251;28;20411;-94
2023/07/13 10:10:21;;;;;;;5.50;4.27;;;25.10;57.70;;;;;;5053877;28;20470;-91
2023/07/13 10:12:47;;;;;;;5.27;4.10;;;25.10;57.70;;;;;;5054403;28;20395;-92
2023/07/13 10:15:21;;;;;;;4.40;4.00;;;25.10;57.60;;;;;;5062409;28;20418;-93
2023/07/13 10:17:55;;;;;;;10.83;4.37;;;25.10;57.60;;;;;;5054484;28;20481;-92
2023/07/13 10:20:24;;;;;;;4.60;3.60;;;25.10;57.50;;;;;;5020752;28;20473;-91
2023/07/13 10:23:06;;;;;;;5.83;4.60;;;25.10;57.60;;;;;;5052576;28;20467;-82
2023/07/13 10:25:38;;;;;;;6.63;4.30;;;25.10;57.50;;;;;;5037659;28;20423;-81
2023/07/13 10:28:25;;;;;;;4.50;4.10;;;25.10;57.50;;;;;;5018755;28;20427;-83
2023/07/13 10:30:56;;;;;;;6.77;4.40;;;25.20;57.50;;;;;;5041731;28;20796;-80
2023/07/13 10:33:22;;;;;;;8.13;3.77;;;25.20;57.50;;;;;;5052440;28;20430;-82
2023/07/13 10:35:54;;;;;;;4.23;3.83;;;25.20;57.60;;;;;;5035143;28;20833;-85
2023/07/13 10:38:23;;;;;;;4.93;3.70;;;25.20;57.60;;;;;;5056225;28;20498;-83
2023/07/13 10:41:15;;;;;;;4.27;3.87;;;25.20;57.60;;;;;;5055960;28;20398;-83
2023/07/13 10:43:52;;;;;;;6.47;3.90;;;25.20;57.60;;;;;;5038973;28;20415;-84
2023/07/13 10:46:44;;;;;;;4.60;4.20;;;25.20;57.50;;;;;;5024498;28;20467;-83
2023/07/13 10:49:12;;;;;;;5.07;4.50;;;25.20;57.40;;;;;;5030749;28;20790;-83
2023/07/13 10:51:40;;;;;;;4.20;3.80;;;25.20;57.40;;;;;;5059465;28;20755;-83
2023/07/13 10:58:20;;;;;;;4.90;3.83;;;25.20;57.30;;;;;;5055251;28;20447;-88
2023/07/13 11:01:13;;;;;;;6.60;4.43;;;25.20;57.20;;;;;;5055768;28;20442;-84
2023/07/13 11:03:50;;;;;;;4.27;3.90;;;25.20;57.10;;;;;;5031954;28;20499;-84
2023/07/13 11:06:41;;;;;;;5.43;4.27;;;25.20;57.10;;;;;;5038873;28;20453;-84
2023/07/13 11:09:36;;;;;;;4.40;4.00;;;25.20;57.10;;;;;;5054704;28;20476;-86
2023/07/13 11:12:17;;;;;;;4.90;4.03;;;25.20;57.10;;;;;;5054551;28;20441;-86
2023/07/13 11:14:55;;;;;;;4.07;3.70;;;25.20;57.30;;;;;;5038123;28;20402;-86
2023/07/13 11:17:34;;;;;;;5.00;3.70;;;25.30;57.30;;;;;;5037566;28;20905;-86
2023/07/13 11:20:15;;;;;;;4.50;4.00;;;25.30;57.10;;;;;;5037817;28;20480;-87
2023/07/13 11:23:10;;;;;;;4.87;3.80;;;25.30;56.80;;;;;;5044714;28;20431;-89
2023/07/13 11:25:37;;;;;;;6.50;4.00;;;25.40;57.10;;;;;;5041072;28;20516;-85
2023/07/13 11:28:06;;;;;;;4.77;4.03;;;25.40;56.90;;;;;;5054689;28;20439;-87
2023/07/13 11:30:49;;;;;;;4.63;4.30;;;25.40;56.80;;;;;;5035913;28;20399;-85
2023/07/13 11:33:45;;;;;;;4.20;3.87;;;25.40;56.70;;;;;;5031558;28;20421;-85
2023/07/13 11:36:21;;;;;;;4.40;3.63;;;25.40;56.50;;;;;;5074307;28;20418;-85
2023/07/13 11:39:30;;;;;;;4.93;4.40;;;25.40;56.40;;;;;;5052534;28;20478;-84
2023/07/13 11:42:01;;;;;;;4.63;4.07;;;25.50;56.30;;;;;;5023810;28;20438;-85
2023/07/13 11:44:29;;;;;;;3.73;3.40;;;25.50;56.20;;;;;;5035478;28;20469;-83
2023/07/13 11:47:00;;;;;;;5.57;3.70;;;25.60;56.10;;;;;;5051406;28;21051;-84
2023/07/13 11:49:30;;;;;;;5.23;3.50;;;25.60;56.10;;;;;;5056545;28;20441;-84
2023/07/13 11:51:59;;;;;;;3.63;3.33;;;25.60;56.00;;;;;;5055102;28;20798;-85
2023/07/13 11:54:31;;;;;;;4.33;3.80;;;25.60;56.00;;;;;;5055336;28;20476;-85
2023/07/13 11:57:02;;;;;;;4.60;3.90;;;25.60;55.90;;;;;;5037713;28;20423;-86
2023/07/13 11:59:32;;;;;;;3.90;3.53;;;25.70;55.80;;;;;;5061060;28;20456;-86
2023/07/13 12:01:58;;;;;;;5.60;3.40;;;25.70;55.70;;;;;;5061348;28;20723;-85
2023/07/13 12:04:33;;;;;;;4.47;4.03;;;25.70;55.70;;;;;;5054975;28;20415;-84
2023/07/13 12:07:06;;;;;;;3.60;3.30;;;25.70;55.80;;;;;;5066578;28;20423;-84
2023/07/13 12:09:36;;;;;;;4.40;4.00;;;25.80;55.80;;;;;;5053467;28;20511;-87
2023/07/13 12:12:30;;;;;;;4.83;4.10;;;25.80;55.70;;;;;;5060549;28;20504;-85
2023/07/13 12:15:05;;;;;;;4.80;4.40;;;25.80;55.50;;;;;;5041512;28;20445;-88
2023/07/13 12:17:34;;;;;;;4.77;3.87;;;25.80;55.40;;;;;;5055188;28;20472;-86
2023/07/13 12:20:21;;;;;;;6.70;3.77;;;25.80;55.20;;;;;;5053656;28;20518;-84
2023/07/13 12:22:49;;;;;;;5.50;4.03;;;25.90;55.20;;;;;;5053704;28;20418;-85
2023/07/13 12:25:18;;;;;;;3.70;3.40;;;25.90;55.00;;;;;;5053370;28;20411;-84
2023/07/13 12:27:49;;;;;;;3.20;3.00;;;25.90;54.90;;;;;;5037418;28;20427;-87
2023/07/13 12:30:23;;;;;;;4.50;3.47;;;25.90;54.90;;;;;;5049531;28;20430;-85
2023/07/13 12:33:03;;;;;;;3.97;3.67;;;25.90;54.70;;;;;;5052855;28;20953;-84
2023/07/13 12:35:35;;;;;;;3.60;3.30;;;25.90;54.70;;;;;;5052778;28;20433;-83
2023/07/13 12:38:09;;;;;;;3.83;3.40;;;25.90;54.70;;;;;;5041240;28;20410;-85
2023/07/13 12:40:36;;;;;;;3.53;3.23;;;26.00;54.60;;;;;;5053101;28;20513;-86
2023/07/13 12:43:06;;;;;;;3.87;3.53;;;26.00;54.50;;;;;;5052976;28;20402;-86
2023/07/13 12:45:32;;;;;;;4.03;3.20;;;26.00;54.40;;;;;;5054126;28;20421;-86
2023/07/13 12:48:13;;;;;;;4.10;3.67;;;26.00;54.20;;;;;;5019704;28;20454;-86
2023/07/13 12:50:50;;;;;;;6.83;4.00;;;26.10;54.10;;;;;;5031005;28;21180;-85
2023/07/13 12:53:23;;;;;;;3.73;3.43;;;26.00;54.10;;;;;;5029667;28;20516;-85
2023/07/13 12:55:59;;;;;;;4.73;4.20;;;26.10;54.20;;;;;;5036093;28;20887;-83
2023/07/13 12:58:38;;;;;;;3.50;3.20;;;26.10;54.30;;;;;;5051893;28;20466;-85
2023/07/13 13:01:07;;;;;;;3.60;3.37;;;26.10;54.20;;;;;;5043304;28;20775;-85
2023/07/13 13:03:41;;;;;;;4.63;3.73;;;26.10;54.20;;;;;;5051012;28;20526;-84
2023/07/13 13:06:26;;;;;;;5.20;3.37;;;26.10;54.20;;;;;;5035447;28;20488;-83
2023/07/13 13:08:55;;;;;;;4.30;3.50;;;26.10;54.20;;;;;;5036195;28;20478;-88